createdAt,value
2022-11-21T00:04:28.692Z,3.90
2022-11-21T00:09:34.096Z,3.90
2022-11-21T00:14:38.771Z,3.90
2022-11-21T00:19:42.124Z,3.80
2022-11-21T00:24:45.740Z,3.70
2022-11-21T00:29:57.421Z,3.60
2022-11-21T00:35:00.943Z,3.60
2022-11-21T00:40:05.347Z,3.60
2022-11-21T00:45:11.104Z,3.50
2022-11-21T00:50:16.728Z,3.40
2022-11-21T00:55:20.180Z,3.40
2022-11-21T01:00:25.194Z,3.40
2022-11-21T01:05:29.691Z,3.40
2022-11-21T01:10:35.665Z,3.30
2022-11-21T01:15:40.451Z,3.50
2022-11-21T01:20:44.040Z,3.60
2022-11-21T01:25:47.455Z,3.70
2022-11-21T01:31:06.993Z,3.90
2022-11-21T01:36:12.322Z,3.90
2022-11-21T01:41:18.479Z,4.00
2022-11-21T01:46:26.043Z,4.00
2022-11-21T01:51:32.711Z,4.00
2022-11-21T01:56:42.148Z,4.10
2022-11-21T02:01:49.307Z,4.00
2022-11-21T02:06:54.967Z,4.00
2022-11-21T02:12:03.398Z,4.00
2022-11-21T02:17:10.632Z,4.00
2022-11-21T02:22:19.771Z,4.00
2022-11-21T02:27:24.830Z,4.00
2022-11-21T02:32:34.699Z,4.00
2022-11-21T02:37:39.124Z,4.00
2022-11-21T02:42:52.386Z,4.00
2022-11-21T02:48:03.389Z,3.90
2022-11-21T02:53:16.075Z,4.00
2022-11-21T02:58:20.875Z,3.90
2022-11-21T03:03:24.485Z,4.00
2022-11-21T03:08:28.879Z,3.90
2022-11-21T03:13:33.628Z,3.90
2022-11-21T03:18:37.116Z,3.90
2022-11-21T03:23:41.464Z,3.90
2022-11-21T03:28:46.357Z,3.90
2022-11-21T03:33:49.623Z,3.90
2022-11-21T03:38:52.909Z,3.90
2022-11-21T03:43:57.990Z,3.90
2022-11-21T03:49:01.580Z,3.80
2022-11-21T03:54:06.008Z,3.80
2022-11-21T03:59:10.752Z,3.70
2022-11-21T04:04:15.268Z,3.60
2022-11-21T04:09:19.297Z,3.40
2022-11-21T04:14:24.111Z,3.30
2022-11-21T04:19:29.493Z,3.30
2022-11-21T04:24:33.813Z,3.30
2022-11-21T04:29:39.643Z,3.20
2022-11-21T04:34:43.010Z,3.10
2022-11-21T04:39:46.245Z,2.90
2022-11-21T04:44:51.058Z,2.80
2022-11-21T04:49:56.407Z,2.60
2022-11-21T04:55:00.760Z,2.50
2022-11-21T05:00:06.055Z,2.60
2022-11-21T05:05:10.800Z,2.50
2022-11-21T05:10:16.260Z,2.50
2022-11-21T05:15:24.572Z,2.40
2022-11-21T05:20:29.889Z,2.40
2022-11-21T05:25:34.654Z,2.40
2022-11-21T05:30:39.476Z,2.30
2022-11-21T05:35:43.728Z,2.30
2022-11-21T05:40:47.253Z,2.40
2022-11-21T05:45:53.425Z,2.40
2022-11-21T05:51:02.842Z,2.40
2022-11-21T05:56:17.271Z,2.40
2022-11-21T06:01:56.005Z,2.30
2022-11-21T06:07:09.278Z,2.20
2022-11-21T06:12:15.598Z,2.20
2022-11-21T06:17:20.400Z,2.20
2022-11-21T06:22:23.874Z,2.20
2022-11-21T06:27:27.277Z,2.30
2022-11-21T06:32:37.353Z,2.30
2022-11-21T06:37:52.212Z,2.50
2022-11-21T06:42:58.011Z,2.60
2022-11-21T06:48:04.793Z,2.60
2022-11-21T06:53:08.428Z,2.70
2022-11-21T06:58:11.765Z,2.80
2022-11-21T07:03:16.718Z,3.00
2022-11-21T07:08:20.087Z,3.10
2022-11-21T07:13:24.851Z,3.20
2022-11-21T07:18:29.513Z,3.40
2022-11-21T07:23:33.755Z,3.60
2022-11-21T07:28:37.209Z,3.70
2022-11-21T07:33:44.416Z,3.80
2022-11-21T07:38:48.374Z,3.90
2022-11-21T07:43:51.650Z,3.90
2022-11-21T07:49:00.605Z,3.90
2022-11-21T07:54:06.771Z,4.10
2022-11-21T07:59:10.183Z,4.00
2022-11-21T08:04:15.060Z,4.10
2022-11-21T08:09:18.365Z,4.20
2022-11-21T08:14:27.346Z,4.40
2022-11-21T08:19:33.738Z,4.50
2022-11-21T08:24:36.931Z,4.60
2022-11-21T08:29:40.187Z,4.60
2022-11-21T08:34:49.831Z,4.90
2022-11-21T08:40:02.960Z,5.40
2022-11-21T08:45:07.218Z,5.50
2022-11-21T08:50:12.129Z,5.60
2022-11-21T08:55:15.949Z,5.80
2022-11-21T09:00:19.426Z,5.80
2022-11-21T09:05:31.778Z,6.10
2022-11-21T09:10:35.045Z,6.50
2022-11-21T09:16:02.848Z,6.10
2022-11-21T09:21:08.693Z,5.50
2022-11-21T09:26:12.049Z,5.30
2022-11-21T09:31:17.334Z,5.50
2022-11-21T09:36:22.022Z,5.80
2022-11-21T09:41:53.967Z,6.00
2022-11-21T09:47:05.805Z,6.20
2022-11-21T09:52:12.756Z,6.30
2022-11-21T09:57:19.179Z,6.30
2022-11-21T10:02:24.718Z,6.50
2022-11-21T10:07:33.749Z,6.60
2022-11-21T10:12:46.554Z,6.80
2022-11-21T10:18:06.022Z,7.00
2022-11-21T10:23:40.333Z,7.10
2022-11-21T10:28:52.475Z,7.10
2022-11-21T10:33:58.259Z,7.20
2022-11-21T10:39:17.393Z,7.30
2022-11-21T10:44:45.054Z,7.50
2022-11-21T10:49:49.972Z,7.80
2022-11-21T10:55:10.630Z,8.10
2022-11-21T11:00:24.231Z,8.50
2022-11-21T11:05:28.819Z,8.10
2022-11-21T11:10:35.211Z,8.10
2022-11-21T11:16:02.413Z,8.10
2022-11-21T11:21:19.176Z,7.80
2022-11-21T11:26:32.699Z,7.60
2022-11-21T11:31:46.048Z,8.20
2022-11-21T11:37:10.910Z,8.70
2022-11-21T11:42:57.939Z,8.70
2022-11-21T11:48:02.724Z,8.60
2022-11-21T11:53:15.253Z,8.70
2022-11-21T11:58:26.365Z,9.10
2022-11-21T12:03:42.314Z,9.20
2022-11-21T12:08:54.156Z,9.20
2022-11-21T12:14:08.491Z,9.00
2022-11-21T12:19:17.037Z,8.70
2022-11-21T12:24:21.218Z,8.40
2022-11-21T12:29:37.720Z,8.40
2022-11-21T12:35:01.653Z,8.60
2022-11-21T12:40:22.213Z,8.60
2022-11-21T12:45:32.987Z,8.60
2022-11-21T12:51:01.823Z,8.30
2022-11-21T12:56:15.505Z,8.50
2022-11-21T13:01:29.912Z,8.90
2022-11-21T13:06:39.365Z,9.00
2022-11-21T13:12:02.527Z,8.90
2022-11-21T13:17:20.517Z,8.70
2022-11-21T13:22:57.989Z,8.80
2022-11-21T13:28:35.820Z,8.90
2022-11-21T13:33:53.643Z,8.70
2022-11-21T13:39:34.453Z,8.40
2022-11-21T13:44:41.828Z,8.10
2022-11-21T13:49:56.795Z,7.70
2022-11-21T13:55:28.656Z,7.60
2022-11-21T14:00:42.993Z,7.70
2022-11-21T14:06:09.662Z,7.80
2022-11-21T14:11:23.584Z,7.80
2022-11-21T14:16:35.514Z,7.80
2022-11-21T14:21:41.332Z,7.70
2022-11-21T14:26:48.465Z,7.60
2022-11-21T14:31:52.021Z,7.60
2022-11-21T14:36:59.268Z,7.50
2022-11-21T14:42:11.333Z,7.40
2022-11-21T14:47:21.507Z,7.30
2022-11-21T14:52:31.613Z,7.20
2022-11-21T14:57:38.986Z,7.10
2022-11-21T15:02:43.464Z,6.90
2022-11-21T15:07:48.860Z,6.80
2022-11-21T15:13:00.033Z,6.60
2022-11-21T15:23:32.212Z,6.20
2022-11-21T15:28:35.767Z,5.90
2022-11-21T15:34:27.244Z,5.80
2022-11-21T15:39:23.542Z,5.60
2022-11-21T15:44:28.609Z,5.50
2022-11-21T15:54:56.792Z,5.20
2022-11-21T15:57:15.067Z,5.20
2022-11-21T16:00:00.143Z,4.90
2022-11-21T16:05:03.518Z,4.70
2022-11-21T16:10:21.030Z,4.50
2022-11-21T16:15:40.148Z,4.40
2022-11-21T16:20:45.374Z,4.30
2022-11-21T16:26:00.038Z,4.20
2022-11-21T16:31:20.626Z,4.20
2022-11-21T16:36:26.330Z,3.90
2022-11-21T16:41:34.386Z,3.60
2022-11-21T16:46:43.742Z,3.40
2022-11-21T16:51:47.257Z,3.50
2022-11-21T16:56:52.044Z,3.40
2022-11-21T17:01:55.475Z,3.10
2022-11-21T17:07:05.140Z,3.00
2022-11-21T17:12:21.250Z,3.20
2022-11-21T17:17:25.720Z,3.30
2022-11-21T17:22:29.307Z,3.20
2022-11-21T17:27:34.064Z,3.20
2022-11-21T17:32:37.578Z,3.60
2022-11-21T17:37:41.125Z,3.70
2022-11-21T17:42:47.064Z,3.70
2022-11-21T17:47:50.453Z,3.60
2022-11-21T17:52:53.825Z,3.80
2022-11-21T17:57:58.675Z,4.30
2022-11-21T18:03:02.037Z,4.60
2022-11-21T18:08:07.028Z,4.70
2022-11-21T18:13:11.800Z,4.60
2022-11-21T18:18:15.631Z,4.60
2022-11-21T18:23:19.194Z,4.50
2022-11-21T18:28:24.018Z,4.40
2022-11-21T18:33:27.657Z,4.40
2022-11-21T18:38:48.065Z,4.30
2022-11-21T18:43:55.482Z,4.20
2022-11-21T18:49:06.055Z,4.10
2022-11-21T18:54:11.285Z,4.00
2022-11-21T18:59:16.408Z,4.00
2022-11-21T19:04:19.854Z,4.20
2022-11-21T19:09:26.818Z,4.50
2022-11-21T19:14:34.233Z,5.00
2022-11-21T19:19:37.751Z,5.10
2022-11-21T19:24:42.720Z,4.90
2022-11-21T19:29:51.562Z,4.80
2022-11-21T19:34:54.970Z,4.70
2022-11-21T19:39:58.301Z,4.70
2022-11-21T19:45:07.331Z,4.60
2022-11-21T19:50:11.830Z,4.60
2022-11-21T19:55:15.311Z,4.50
2022-11-21T20:00:27.300Z,4.40
2022-11-21T20:05:42.742Z,4.30
2022-11-21T20:10:47.276Z,4.30
2022-11-21T20:15:52.259Z,4.20
2022-11-21T20:20:55.664Z,4.20
2022-11-21T20:25:58.970Z,4.20
2022-11-21T20:31:09.324Z,4.40
2022-11-21T20:36:17.394Z,4.40
2022-11-21T20:41:21.193Z,4.40
2022-11-21T20:46:27.219Z,4.40
2022-11-21T20:56:54.972Z,4.50
2022-11-21T21:01:59.861Z,4.50
2022-11-21T21:07:03.415Z,4.60
2022-11-21T21:12:07.483Z,4.60
2022-11-21T21:17:12.744Z,4.50
2022-11-21T21:22:18.293Z,4.50
2022-11-21T21:27:22.835Z,4.40
2022-11-21T21:32:29.772Z,4.50
2022-11-21T21:37:34.324Z,4.30
2022-11-21T21:42:37.877Z,4.40
2022-11-21T21:47:45.720Z,4.30
2022-11-21T21:52:49.183Z,4.40
2022-11-21T21:58:02.660Z,4.60
2022-11-21T22:03:11.913Z,4.70
2022-11-21T22:08:16.211Z,4.70
2022-11-21T22:13:19.633Z,4.70
2022-11-21T22:18:25.650Z,4.70
2022-11-21T22:23:35.006Z,4.70
2022-11-21T22:28:43.025Z,4.70
2022-11-21T22:33:53.401Z,4.60
2022-11-21T22:38:57.560Z,4.60
2022-11-21T22:44:03.353Z,4.60
2022-11-21T22:49:08.270Z,4.60
2022-11-21T22:54:12.814Z,4.50
2022-11-21T22:59:18.173Z,4.40
2022-11-21T23:04:27.894Z,4.40
2022-11-21T23:09:31.787Z,4.30
2022-11-21T23:14:36.389Z,4.30
2022-11-21T23:19:41.364Z,4.30
2022-11-21T23:24:46.217Z,4.30
2022-11-21T23:29:50.704Z,4.40
2022-11-21T23:34:55.409Z,4.40
2022-11-21T23:39:58.740Z,4.40
2022-11-21T23:45:03.361Z,4.30
2022-11-21T23:50:09.423Z,4.30
2022-11-21T23:55:12.898Z,4.30
